sensor_id;sensor_type;location;lat;lon;timestamp;pressure;altitude;pressure_sealevel;temperature;humidity
62948;BME280;51940;52.126;-0.994;2023-05-25T00:02:07;101283.13;;;12.78;100.00
62948;BME280;51940;52.126;-0.994;2023-05-25T00:04:32;101277.10;;;12.65;100.00
62948;BME280;51940;52.126;-0.994;2023-05-25T00:07:01;101270.42;;;12.60;100.00
62948;BME280;51940;52.126;-0.994;2023-05-25T00:09:27;101268.55;;;12.54;100.00
62948;BME280;51940;52.126;-0.994;2023-05-25T00:11:52;101264.02;;;12.47;100.00
62948;BME280;51940;52.126;-0.994;2023-05-25T00:14:18;101261.04;;;12.43;100.00
62948;BME280;51940;52.126;-0.994;2023-05-25T00:16:44;101257.00;;;12.39;100.00
62948;BME280;51940;52.126;-0.994;2023-05-25T00:19:13;101260.89;;;12.41;100.00
62948;BME280;51940;52.126;-0.994;2023-05-25T00:21:38;101261.23;;;12.42;100.00
62948;BME280;51940;52.126;-0.994;2023-05-25T00:24:05;101263.05;;;12.41;100.00
62948;BME280;51940;52.126;-0.994;2023-05-25T00:26:30;101265.39;;;12.30;100.00
62948;BME280;51940;52.126;-0.994;2023-05-25T00:28:56;101265.77;;;12.28;100.00
62948;BME280;51940;52.126;-0.994;2023-05-25T00:31:21;101267.42;;;12.26;100.00
62948;BME280;51940;52.126;-0.994;2023-05-25T00:33:46;101271.10;;;12.31;100.00
62948;BME280;51940;52.126;-0.994;2023-05-25T00:36:12;101274.33;;;12.30;100.00
62948;BME280;51940;52.126;-0.994;2023-05-25T00:38:37;101271.64;;;12.30;100.00
62948;BME280;51940;52.126;-0.994;2023-05-25T00:41:03;101273.95;;;12.32;100.00
62948;BME280;51940;52.126;-0.994;2023-05-25T00:43:30;101274.22;;;12.26;100.00
62948;BME280;51940;52.126;-0.994;2023-05-25T00:45:57;101267.77;;;12.16;100.00
62948;BME280;51940;52.126;-0.994;2023-05-25T00:48:24;101263.58;;;12.21;100.00
62948;BME280;51940;52.126;-0.994;2023-05-25T00:50:53;101273.09;;;12.28;100.00
62948;BME280;51940;52.126;-0.994;2023-05-25T00:53:19;101277.38;;;12.29;100.00
62948;BME280;51940;52.126;-0.994;2023-05-25T00:56:09;101277.61;;;12.26;100.00
62948;BME280;51940;52.126;-0.994;2023-05-25T00:58:41;101278.04;;;12.22;100.00
62948;BME280;51940;52.126;-0.994;2023-05-25T01:01:08;101278.04;;;12.23;100.00
62948;BME280;51940;52.126;-0.994;2023-05-25T01:03:39;101271.58;;;12.24;100.00
62948;BME280;51940;52.126;-0.994;2023-05-25T01:06:10;101272.77;;;12.27;100.00
62948;BME280;51940;52.126;-0.994;2023-05-25T01:08:39;101272.48;;;12.34;100.00
62948;BME280;51940;52.126;-0.994;2023-05-25T01:11:10;101278.29;;;12.38;100.00
62948;BME280;51940;52.126;-0.994;2023-05-25T01:13:37;101277.52;;;12.42;100.00
62948;BME280;51940;52.126;-0.994;2023-05-25T01:16:06;101276.58;;;12.45;100.00
62948;BME280;51940;52.126;-0.994;2023-05-25T01:18:33;101271.36;;;12.47;100.00
62948;BME280;51940;52.126;-0.994;2023-05-25T01:21:05;101264.56;;;12.46;100.00
62948;BME280;51940;52.126;-0.994;2023-05-25T01:23:42;101261.57;;;12.44;100.00
62948;BME280;51940;52.126;-0.994;2023-05-25T01:26:14;101252.53;;;12.39;100.00
62948;BME280;51940;52.126;-0.994;2023-05-25T01:28:43;101249.89;;;12.36;100.00
62948;BME280;51940;52.126;-0.994;2023-05-25T01:31:10;101251.29;;;12.28;100.00
62948;BME280;51940;52.126;-0.994;2023-05-25T01:33:38;101245.75;;;12.27;100.00
62948;BME280;51940;52.126;-0.994;2023-05-25T01:36:05;101247.31;;;12.20;100.00
62948;BME280;51940;52.126;-0.994;2023-05-25T01:38:31;101243.16;;;12.11;100.00
62948;BME280;51940;52.126;-0.994;2023-05-25T01:40:57;101244.02;;;12.04;100.00
62948;BME280;51940;52.126;-0.994;2023-05-25T01:43:22;101241.67;;;12.05;100.00
62948;BME280;51940;52.126;-0.994;2023-05-25T01:45:49;101239.77;;;12.11;100.00
62948;BME280;51940;52.126;-0.994;2023-05-25T01:48:44;101244.14;;;12.17;100.00
62948;BME280;51940;52.126;-0.994;2023-05-25T01:51:20;101242.85;;;12.20;100.00
62948;BME280;51940;52.126;-0.994;2023-05-25T01:53:51;101243.65;;;12.25;100.00
62948;BME280;51940;52.126;-0.994;2023-05-25T01:56:18;101244.41;;;12.23;100.00
62948;BME280;51940;52.126;-0.994;2023-05-25T01:58:47;101243.21;;;12.29;100.00
62948;BME280;51940;52.126;-0.994;2023-05-25T02:01:14;101239.80;;;12.29;100.00
62948;BME280;51940;52.126;-0.994;2023-05-25T02:03:41;101234.56;;;12.33;100.00
62948;BME280;51940;52.126;-0.994;2023-05-25T02:06:07;101236.65;;;12.36;100.00
62948;BME280;51940;52.126;-0.994;2023-05-25T02:08:33;101234.11;;;12.37;100.00
62948;BME280;51940;52.126;-0.994;2023-05-25T02:11:00;101231.40;;;12.40;100.00
62948;BME280;51940;52.126;-0.994;2023-05-25T02:13:26;101227.79;;;12.41;100.00
62948;BME280;51940;52.126;-0.994;2023-05-25T02:15:51;101232.52;;;12.48;100.00
62948;BME280;51940;52.126;-0.994;2023-05-25T02:18:17;101225.70;;;12.49;100.00
62948;BME280;51940;52.126;-0.994;2023-05-25T02:20:43;101217.83;;;12.48;100.00
62948;BME280;51940;52.126;-0.994;2023-05-25T02:23:09;101216.58;;;12.49;100.00
62948;BME280;51940;52.126;-0.994;2023-05-25T02:25:34;101214.91;;;12.52;100.00
62948;BME280;51940;52.126;-0.994;2023-05-25T02:27:59;101216.95;;;12.57;100.00
62948;BME280;51940;52.126;-0.994;2023-05-25T02:30:25;101211.90;;;12.59;100.00
62948;BME280;51940;52.126;-0.994;2023-05-25T02:32:50;101212.20;;;12.61;100.00
62948;BME280;51940;52.126;-0.994;2023-05-25T02:35:16;101210.56;;;12.63;100.00
62948;BME280;51940;52.126;-0.994;2023-05-25T02:37:41;101209.30;;;12.63;100.00
62948;BME280;51940;52.126;-0.994;2023-05-25T02:40:07;101205.48;;;12.57;100.00
62948;BME280;51940;52.126;-0.994;2023-05-25T02:42:34;101198.69;;;12.48;100.00
62948;BME280;51940;52.126;-0.994;2023-05-25T02:45:04;101192.19;;;12.42;100.00
62948;BME280;51940;52.126;-0.994;2023-05-25T02:47:30;101184.13;;;12.42;100.00
62948;BME280;51940;52.126;-0.994;2023-05-25T02:49:55;101186.45;;;12.42;100.00
62948;BME280;51940;52.126;-0.994;2023-05-25T02:52:21;101182.29;;;12.45;100.00
62948;BME280;51940;52.126;-0.994;2023-05-25T02:54:46;101189.63;;;12.53;100.00
62948;BME280;51940;52.126;-0.994;2023-05-25T02:57:12;101188.70;;;12.55;100.00
62948;BME280;51940;52.126;-0.994;2023-05-25T02:59:38;101183.50;;;12.56;100.00
62948;BME280;51940;52.126;-0.994;2023-05-25T03:02:03;101181.71;;;12.56;100.00
62948;BME280;51940;52.126;-0.994;2023-05-25T03:04:29;101177.05;;;12.57;100.00
62948;BME280;51940;52.126;-0.994;2023-05-25T03:06:58;101173.46;;;12.58;100.00
62948;BME280;51940;52.126;-0.994;2023-05-25T03:09:23;101176.16;;;12.56;100.00
62948;BME280;51940;52.126;-0.994;2023-05-25T03:11:48;101179.16;;;12.58;100.00
62948;BME280;51940;52.126;-0.994;2023-05-25T03:14:14;101179.02;;;12.57;100.00
62948;BME280;51940;52.126;-0.994;2023-05-25T03:16:40;101179.52;;;12.58;100.00
62948;BME280;51940;52.126;-0.994;2023-05-25T03:19:05;101185.67;;;12.64;100.00
62948;BME280;51940;52.126;-0.994;2023-05-25T03:21:31;101189.88;;;12.68;100.00
62948;BME280;51940;52.126;-0.994;2023-05-25T03:23:57;101191.44;;;12.71;100.00
62948;BME280;51940;52.126;-0.994;2023-05-25T03:26:23;101195.54;;;12.71;100.00
62948;BME280;51940;52.126;-0.994;2023-05-25T03:28:51;101193.23;;;12.70;100.00
62948;BME280;51940;52.126;-0.994;2023-05-25T03:31:17;101192.86;;;12.71;100.00
62948;BME280;51940;52.126;-0.994;2023-05-25T03:33:43;101188.43;;;12.69;100.00
62948;BME280;51940;52.126;-0.994;2023-05-25T03:36:09;101185.05;;;12.68;100.00
62948;BME280;51940;52.126;-0.994;2023-05-25T03:38:38;101180.77;;;12.68;100.00
62948;BME280;51940;52.126;-0.994;2023-05-25T03:41:04;101185.70;;;12.71;100.00
62948;BME280;51940;52.126;-0.994;2023-05-25T03:43:29;101184.77;;;12.72;100.00
62948;BME280;51940;52.126;-0.994;2023-05-25T03:45:55;101182.61;;;12.73;100.00
62948;BME280;51940;52.126;-0.994;2023-05-25T03:48:21;101183.52;;;12.72;100.00
62948;BME280;51940;52.126;-0.994;2023-05-25T03:50:46;101174.81;;;12.70;100.00
62948;BME280;51940;52.126;-0.994;2023-05-25T03:53:12;101174.31;;;12.68;100.00
62948;BME280;51940;52.126;-0.994;2023-05-25T03:55:37;101170.58;;;12.67;100.00
62948;BME280;51940;52.126;-0.994;2023-05-25T03:58:03;101166.34;;;12.63;100.00
62948;BME280;51940;52.126;-0.994;2023-05-25T04:00:28;101165.61;;;12.66;100.00
62948;BME280;51940;52.126;-0.994;2023-05-25T04:02:53;101163.79;;;12.66;100.00
62948;BME280;51940;52.126;-0.994;2023-05-25T04:05:21;101158.55;;;12.68;100.00
62948;BME280;51940;52.126;-0.994;2023-05-25T04:07:46;101155.14;;;12.69;100.00
62948;BME280;51940;52.126;-0.994;2023-05-25T04:10:12;101153.98;;;12.73;100.00
62948;BME280;51940;52.126;-0.994;2023-05-25T04:12:37;101154.69;;;12.74;100.00
62948;BME280;51940;52.126;-0.994;2023-05-25T04:15:03;101159.15;;;12.75;100.00
62948;BME280;51940;52.126;-0.994;2023-05-25T04:17:30;101158.61;;;12.75;100.00
62948;BME280;51940;52.126;-0.994;2023-05-25T04:19:55;101159.83;;;12.76;100.00
62948;BME280;51940;52.126;-0.994;2023-05-25T04:22:21;101156.27;;;12.75;100.00
62948;BME280;51940;52.126;-0.994;2023-05-25T04:24:47;101162.34;;;12.76;100.00
62948;BME280;51940;52.126;-0.994;2023-05-25T04:27:12;101167.67;;;12.78;100.00
62948;BME280;51940;52.126;-0.994;2023-05-25T04:29:41;101166.94;;;12.79;100.00
62948;BME280;51940;52.126;-0.994;2023-05-25T04:32:07;101171.02;;;12.79;100.00
62948;BME280;51940;52.126;-0.994;2023-05-25T04:34:34;101178.70;;;12.80;100.00
62948;BME280;51940;52.126;-0.994;2023-05-25T04:37:00;101183.16;;;12.82;100.00
62948;BME280;51940;52.126;-0.994;2023-05-25T04:39:30;101190.51;;;12.81;100.00
62948;BME280;51940;52.126;-0.994;2023-05-25T04:41:55;101202.30;;;12.83;100.00
62948;BME280;51940;52.126;-0.994;2023-05-25T04:44:21;101206.77;;;12.84;100.00
62948;BME280;51940;52.126;-0.994;2023-05-25T04:46:48;101210.83;;;12.86;100.00
62948;BME280;51940;52.126;-0.994;2023-05-25T04:49:14;101224.95;;;12.86;100.00
62948;BME280;51940;52.126;-0.994;2023-05-25T04:51:41;101230.80;;;12.89;100.00
62948;BME280;51940;52.126;-0.994;2023-05-25T04:54:06;101231.48;;;12.92;100.00
62948;BME280;51940;52.126;-0.994;2023-05-25T04:56:32;101234.31;;;13.10;100.00
62948;BME280;51940;52.126;-0.994;2023-05-25T04:58:57;101234.55;;;13.43;100.00
62948;BME280;51940;52.126;-0.994;2023-05-25T05:01:22;101245.57;;;13.85;100.00
62948;BME280;51940;52.126;-0.994;2023-05-25T05:03:48;101272.77;;;14.10;100.00
62948;BME280;51940;52.126;-0.994;2023-05-25T05:06:13;101299.86;;;14.60;100.00
62948;BME280;51940;52.126;-0.994;2023-05-25T05:08:39;101330.11;;;15.43;100.00
62948;BME280;51940;52.126;-0.994;2023-05-25T05:11:05;101380.65;;;16.65;100.00
62948;BME280;51940;52.126;-0.994;2023-05-25T05:13:31;101437.10;;;18.25;100.00
62948;BME280;51940;52.126;-0.994;2023-05-25T05:15:56;101506.13;;;19.54;100.00
62948;BME280;51940;52.126;-0.994;2023-05-25T05:18:22;101613.05;;;20.42;100.00
62948;BME280;51940;52.126;-0.994;2023-05-25T05:20:47;101666.19;;;21.31;100.00
62948;BME280;51940;52.126;-0.994;2023-05-25T05:23:12;101702.03;;;22.21;100.00
62948;BME280;51940;52.126;-0.994;2023-05-25T05:25:38;101715.38;;;23.12;100.00
62948;BME280;51940;52.126;-0.994;2023-05-25T05:28:03;101741.97;;;23.95;100.00
62948;BME280;51940;52.126;-0.994;2023-05-25T05:30:29;101753.27;;;24.39;100.00
62948;BME280;51940;52.126;-0.994;2023-05-25T05:32:54;101774.44;;;24.80;100.00
62948;BME280;51940;52.126;-0.994;2023-05-25T05:35:21;101778.73;;;25.11;100.00
62948;BME280;51940;52.126;-0.994;2023-05-25T05:37:46;101780.19;;;25.80;100.00
62948;BME280;51940;52.126;-0.994;2023-05-25T05:40:12;101787.77;;;26.27;100.00
62948;BME280;51940;52.126;-0.994;2023-05-25T05:42:38;101790.50;;;26.60;100.00
62948;BME280;51940;52.126;-0.994;2023-05-25T05:45:04;101802.57;;;27.23;100.00
62948;BME280;51940;52.126;-0.994;2023-05-25T05:47:30;101807.55;;;27.68;100.00
62948;BME280;51940;52.126;-0.994;2023-05-25T05:49:55;101808.87;;;28.00;100.00
62948;BME280;51940;52.126;-0.994;2023-05-25T05:52:21;101811.20;;;28.33;100.00
62948;BME280;51940;52.126;-0.994;2023-05-25T05:54:47;101808.65;;;28.30;100.00
62948;BME280;51940;52.126;-0.994;2023-05-25T05:57:13;101815.84;;;28.72;100.00
62948;BME280;51940;52.126;-0.994;2023-05-25T05:59:39;101821.21;;;28.64;100.00
62948;BME280;51940;52.126;-0.994;2023-05-25T06:02:04;101814.89;;;28.68;100.00
62948;BME280;51940;52.126;-0.994;2023-05-25T06:04:31;101816.59;;;28.93;100.00
62948;BME280;51940;52.126;-0.994;2023-05-25T06:06:57;101826.64;;;29.06;100.00
62948;BME280;51940;52.126;-0.994;2023-05-25T06:09:23;101823.46;;;29.06;100.00
62948;BME280;51940;52.126;-0.994;2023-05-25T06:11:50;101826.23;;;29.24;100.00
62948;BME280;51940;52.126;-0.994;2023-05-25T06:14:16;101824.27;;;29.49;100.00
62948;BME280;51940;52.126;-0.994;2023-05-25T06:16:41;101826.93;;;30.04;100.00
62948;BME280;51940;52.126;-0.994;2023-05-25T06:19:08;101827.92;;;30.55;100.00
62948;BME280;51940;52.126;-0.994;2023-05-25T06:21:33;101833.69;;;30.72;100.00
62948;BME280;51940;52.126;-0.994;2023-05-25T06:23:58;101832.28;;;31.03;100.00
62948;BME280;51940;52.126;-0.994;2023-05-25T06:26:24;101840.20;;;31.39;100.00
62948;BME280;51940;52.126;-0.994;2023-05-25T06:28:51;101847.55;;;31.41;99.13
62948;BME280;51940;52.126;-0.994;2023-05-25T06:31:16;101843.33;;;31.24;99.32
62948;BME280;51940;52.126;-0.994;2023-05-25T06:33:42;101845.35;;;31.39;99.99
62948;BME280;51940;52.126;-0.994;2023-05-25T06:36:07;101839.89;;;31.63;97.01
62948;BME280;51940;52.126;-0.994;2023-05-25T06:38:33;101841.38;;;31.65;98.03
62948;BME280;51940;52.126;-0.994;2023-05-25T06:40:58;101835.98;;;31.87;96.85
62948;BME280;51940;52.126;-0.994;2023-05-25T06:43:29;101839.20;;;31.52;98.60
62948;BME280;51940;52.126;-0.994;2023-05-25T06:45:57;101836.06;;;32.19;96.09
62948;BME280;51940;52.126;-0.994;2023-05-25T06:48:23;101841.60;;;32.11;93.72
62948;BME280;51940;52.126;-0.994;2023-05-25T06:50:48;101843.96;;;31.85;91.43
62948;BME280;51940;52.126;-0.994;2023-05-25T06:53:14;101845.30;;;31.12;95.53
62948;BME280;51940;52.126;-0.994;2023-05-25T06:55:40;101844.61;;;30.54;97.44
62948;BME280;51940;52.126;-0.994;2023-05-25T06:58:05;101847.15;;;29.79;98.16
62948;BME280;51940;52.126;-0.994;2023-05-25T07:00:30;101845.86;;;29.18;100.00
62948;BME280;51940;52.126;-0.994;2023-05-25T07:02:56;101845.42;;;28.98;100.00
62948;BME280;51940;52.126;-0.994;2023-05-25T07:05:21;101850.70;;;28.12;100.00
62948;BME280;51940;52.126;-0.994;2023-05-25T07:07:47;101857.87;;;27.54;100.00
62948;BME280;51940;52.126;-0.994;2023-05-25T07:10:12;101856.56;;;26.02;100.00
62948;BME280;51940;52.126;-0.994;2023-05-25T07:12:37;101858.58;;;24.65;100.00
62948;BME280;51940;52.126;-0.994;2023-05-25T07:15:03;101855.59;;;24.16;100.00
62948;BME280;51940;52.126;-0.994;2023-05-25T07:17:29;101863.11;;;23.47;100.00
62948;BME280;51940;52.126;-0.994;2023-05-25T07:19:55;101860.16;;;23.24;100.00
62948;BME280;51940;52.126;-0.994;2023-05-25T07:22:21;101858.98;;;22.98;100.00
62948;BME280;51940;52.126;-0.994;2023-05-25T07:24:48;101858.77;;;22.95;100.00
62948;BME280;51940;52.126;-0.994;2023-05-25T07:27:14;101858.02;;;22.60;100.00
62948;BME280;51940;52.126;-0.994;2023-05-25T07:29:41;101852.19;;;22.31;100.00
62948;BME280;51940;52.126;-0.994;2023-05-25T07:32:06;101860.84;;;22.07;100.00
62948;BME280;51940;52.126;-0.994;2023-05-25T07:34:33;101857.40;;;22.10;100.00
62948;BME280;51940;52.126;-0.994;2023-05-25T07:37:03;101858.10;;;22.19;100.00
62948;BME280;51940;52.126;-0.994;2023-05-25T07:39:29;101856.20;;;22.05;100.00
62948;BME280;51940;52.126;-0.994;2023-05-25T07:41:54;101854.31;;;21.91;100.00
62948;BME280;51940;52.126;-0.994;2023-05-25T07:44:20;101853.70;;;21.97;100.00
62948;BME280;51940;52.126;-0.994;2023-05-25T07:46:45;101861.67;;;21.93;100.00
62948;BME280;51940;52.126;-0.994;2023-05-25T07:49:11;101861.81;;;22.10;100.00
62948;BME280;51940;52.126;-0.994;2023-05-25T07:51:42;101863.67;;;22.05;100.00
62948;BME280;51940;52.126;-0.994;2023-05-25T07:54:09;101861.40;;;21.87;100.00
62948;BME280;51940;52.126;-0.994;2023-05-25T07:56:35;101864.13;;;21.76;100.00
62948;BME280;51940;52.126;-0.994;2023-05-25T07:59:00;101865.09;;;21.52;100.00
62948;BME280;51940;52.126;-0.994;2023-05-25T08:01:26;101870.27;;;21.25;100.00
62948;BME280;51940;52.126;-0.994;2023-05-25T08:03:51;101871.60;;;21.08;100.00
62948;BME280;51940;52.126;-0.994;2023-05-25T08:06:17;101878.60;;;21.01;100.00
62948;BME280;51940;52.126;-0.994;2023-05-25T08:08:43;101884.98;;;20.84;100.00
62948;BME280;51940;52.126;-0.994;2023-05-25T08:11:09;101877.11;;;20.64;100.00
62948;BME280;51940;52.126;-0.994;2023-05-25T08:13:36;101884.57;;;20.55;100.00
62948;BME280;51940;52.126;-0.994;2023-05-25T08:16:01;101884.66;;;20.44;100.00
62948;BME280;51940;52.126;-0.994;2023-05-25T08:18:27;101886.52;;;20.42;100.00
62948;BME280;51940;52.126;-0.994;2023-05-25T08:20:52;101881.21;;;20.39;100.00
62948;BME280;51940;52.126;-0.994;2023-05-25T08:23:17;101876.84;;;20.35;100.00
62948;BME280;51940;52.126;-0.994;2023-05-25T08:25:43;101880.69;;;20.25;100.00
62948;BME280;51940;52.126;-0.994;2023-05-25T08:28:08;101880.36;;;20.11;100.00
62948;BME280;51940;52.126;-0.994;2023-05-25T08:30:33;101882.95;;;20.10;100.00
62948;BME280;51940;52.126;-0.994;2023-05-25T08:32:59;101881.02;;;20.04;100.00
62948;BME280;51940;52.126;-0.994;2023-05-25T08:35:24;101881.61;;;20.02;100.00
62948;BME280;51940;52.126;-0.994;2023-05-25T08:37:50;101886.25;;;19.95;100.00
62948;BME280;51940;52.126;-0.994;2023-05-25T08:40:18;101886.09;;;19.85;100.00
62948;BME280;51940;52.126;-0.994;2023-05-25T08:42:46;101894.55;;;19.48;100.00
62948;BME280;51940;52.126;-0.994;2023-05-25T08:45:12;101888.15;;;19.09;100.00
62948;BME280;51940;52.126;-0.994;2023-05-25T08:47:42;101889.56;;;19.16;100.00
62948;BME280;51940;52.126;-0.994;2023-05-25T08:50:10;101891.27;;;19.14;100.00
62948;BME280;51940;52.126;-0.994;2023-05-25T08:52:43;101896.25;;;19.01;100.00
62948;BME280;51940;52.126;-0.994;2023-05-25T08:55:11;101897.15;;;18.85;100.00
62948;BME280;51940;52.126;-0.994;2023-05-25T09:00:27;101891.80;;;18.68;100.00
62948;BME280;51940;52.126;-0.994;2023-05-25T09:03:15;101894.86;;;18.78;100.00
62948;BME280;51940;52.126;-0.994;2023-05-25T09:05:43;101892.72;;;18.98;100.00
62948;BME280;51940;52.126;-0.994;2023-05-25T09:08:09;101898.75;;;19.22;100.00
62948;BME280;51940;52.126;-0.994;2023-05-25T09:10:36;101895.95;;;19.19;100.00
62948;BME280;51940;52.126;-0.994;2023-05-25T09:13:02;101893.56;;;19.15;100.00
62948;BME280;51940;52.126;-0.994;2023-05-25T09:15:29;101892.27;;;19.16;100.00
62948;BME280;51940;52.126;-0.994;2023-05-25T09:17:55;101893.61;;;19.19;100.00
62948;BME280;51940;52.126;-0.994;2023-05-25T09:20:21;101900.73;;;19.37;100.00
62948;BME280;51940;52.126;-0.994;2023-05-25T09:22:48;101903.10;;;19.57;100.00
62948;BME280;51940;52.126;-0.994;2023-05-25T09:25:17;101901.30;;;19.61;100.00
62948;BME280;51940;52.126;-0.994;2023-05-25T09:27:46;101909.42;;;19.72;100.00
62948;BME280;51940;52.126;-0.994;2023-05-25T09:30:11;101916.23;;;19.68;100.00
62948;BME280;51940;52.126;-0.994;2023-05-25T09:32:38;101916.80;;;19.58;100.00
62948;BME280;51940;52.126;-0.994;2023-05-25T09:35:11;101915.81;;;19.45;100.00
62948;BME280;51940;52.126;-0.994;2023-05-25T09:37:37;101917.80;;;19.45;100.00
62948;BME280;51940;52.126;-0.994;2023-05-25T09:40:04;101915.64;;;19.50;100.00
62948;BME280;51940;52.126;-0.994;2023-05-25T09:42:34;101920.23;;;19.43;100.00
62948;BME280;51940;52.126;-0.994;2023-05-25T09:45:03;101917.21;;;19.42;100.00
62948;BME280;51940;52.126;-0.994;2023-05-25T09:47:32;101919.52;;;19.37;100.00
62948;BME280;51940;52.126;-0.994;2023-05-25T09:50:01;101919.27;;;19.30;100.00
62948;BME280;51940;52.126;-0.994;2023-05-25T09:52:26;101928.16;;;19.24;100.00
62948;BME280;51940;52.126;-0.994;2023-05-25T09:54:52;101923.45;;;19.09;100.00
62948;BME280;51940;52.126;-0.994;2023-05-25T09:57:19;101919.60;;;19.00;100.00
62948;BME280;51940;52.126;-0.994;2023-05-25T09:59:45;101914.22;;;18.93;100.00
62948;BME280;51940;52.126;-0.994;2023-05-25T10:02:13;101911.65;;;18.84;100.00
62948;BME280;51940;52.126;-0.994;2023-05-25T10:04:39;101912.25;;;19.03;100.00
62948;BME280;51940;52.126;-0.994;2023-05-25T10:07:04;101919.67;;;19.19;100.00
62948;BME280;51940;52.126;-0.994;2023-05-25T10:09:31;101926.34;;;19.19;100.00
62948;BME280;51940;52.126;-0.994;2023-05-25T10:12:01;101924.85;;;19.21;100.00
62948;BME280;51940;52.126;-0.994;2023-05-25T10:14:28;101924.56;;;19.33;100.00
62948;BME280;51940;52.126;-0.994;2023-05-25T10:16:57;101925.45;;;19.34;100.00
62948;BME280;51940;52.126;-0.994;2023-05-25T10:22:35;101926.98;;;19.37;100.00
62948;BME280;51940;52.126;-0.994;2023-05-25T10:27:41;101926.41;;;19.52;100.00
62948;BME280;51940;52.126;-0.994;2023-05-25T10:30:08;101925.90;;;19.31;100.00
62948;BME280;51940;52.126;-0.994;2023-05-25T10:32:37;101923.24;;;19.40;100.00
62948;BME280;51940;52.126;-0.994;2023-05-25T10:35:07;101928.49;;;19.65;100.00
62948;BME280;51940;52.126;-0.994;2023-05-25T10:37:33;101933.23;;;19.79;100.00
62948;BME280;51940;52.126;-0.994;2023-05-25T10:40:00;101938.06;;;19.75;100.00
62948;BME280;51940;52.126;-0.994;2023-05-25T10:42:26;101938.79;;;19.70;100.00
62948;BME280;51940;52.126;-0.994;2023-05-25T10:44:53;101931.69;;;19.67;100.00
62948;BME280;51940;52.126;-0.994;2023-05-25T10:47:23;101928.84;;;19.80;100.00
62948;BME280;51940;52.126;-0.994;2023-05-25T10:49:57;101936.17;;;19.87;100.00
62948;BME280;51940;52.126;-0.994;2023-05-25T10:52:29;101939.66;;;19.81;100.00
62948;BME280;51940;52.126;-0.994;2023-05-25T10:55:00;101948.02;;;19.76;100.00
62948;BME280;51940;52.126;-0.994;2023-05-25T10:57:29;101946.67;;;19.58;100.00
62948;BME280;51940;52.126;-0.994;2023-05-25T11:00:03;101949.02;;;19.58;100.00
62948;BME280;51940;52.126;-0.994;2023-05-25T11:02:50;101951.91;;;19.58;100.00
62948;BME280;51940;52.126;-0.994;2023-05-25T11:08:03;101950.27;;;19.28;100.00
62948;BME280;51940;52.126;-0.994;2023-05-25T11:13:31;101951.72;;;19.23;100.00
62948;BME280;51940;52.126;-0.994;2023-05-25T11:16:16;101944.13;;;19.07;100.00
62948;BME280;51940;52.126;-0.994;2023-05-25T11:18:56;101946.16;;;19.16;100.00
62948;BME280;51940;52.126;-0.994;2023-05-25T11:24:03;101940.75;;;19.26;100.00
62948;BME280;51940;52.126;-0.994;2023-05-25T11:26:35;101937.06;;;19.38;100.00
62948;BME280;51940;52.126;-0.994;2023-05-25T11:29:11;101934.11;;;19.30;100.00
62948;BME280;51940;52.126;-0.994;2023-05-25T11:31:38;101934.55;;;19.07;100.00
62948;BME280;51940;52.126;-0.994;2023-05-25T11:34:04;101934.14;;;18.98;100.00
62948;BME280;51940;52.126;-0.994;2023-05-25T11:36:31;101930.19;;;18.92;100.00
62948;BME280;51940;52.126;-0.994;2023-05-25T11:39:03;101928.87;;;18.83;100.00
62948;BME280;51940;52.126;-0.994;2023-05-25T11:41:29;101937.73;;;18.60;100.00
62948;BME280;51940;52.126;-0.994;2023-05-25T11:44:06;101934.23;;;18.40;100.00
62948;BME280;51940;52.126;-0.994;2023-05-25T11:46:32;101934.63;;;18.33;100.00
62948;BME280;51940;52.126;-0.994;2023-05-25T11:49:00;101926.88;;;18.26;100.00
62948;BME280;51940;52.126;-0.994;2023-05-25T11:51:28;101925.21;;;18.39;100.00
62948;BME280;51940;52.126;-0.994;2023-05-25T11:53:58;101918.77;;;18.66;100.00
62948;BME280;51940;52.126;-0.994;2023-05-25T11:56:23;101918.90;;;18.84;100.00
62948;BME280;51940;52.126;-0.994;2023-05-25T11:58:49;101919.15;;;18.81;100.00
62948;BME280;51940;52.126;-0.994;2023-05-25T12:01:16;101919.84;;;18.55;100.00
62948;BME280;51940;52.126;-0.994;2023-05-25T12:03:44;101913.81;;;18.51;100.00
62948;BME280;51940;52.126;-0.994;2023-05-25T12:06:29;101910.33;;;18.64;100.00
62948;BME280;51940;52.126;-0.994;2023-05-25T12:08:57;101915.33;;;18.77;100.00
62948;BME280;51940;52.126;-0.994;2023-05-25T12:11:31;101919.33;;;18.87;100.00
62948;BME280;51940;52.126;-0.994;2023-05-25T12:13:57;101919.66;;;18.93;100.00
62948;BME280;51940;52.126;-0.994;2023-05-25T12:16:24;101924.29;;;18.79;100.00
62948;BME280;51940;52.126;-0.994;2023-05-25T12:18:51;101929.06;;;18.54;100.00
62948;BME280;51940;52.126;-0.994;2023-05-25T12:21:17;101921.42;;;18.44;100.00
62948;BME280;51940;52.126;-0.994;2023-05-25T12:23:43;101925.41;;;18.44;100.00
62948;BME280;51940;52.126;-0.994;2023-05-25T12:26:15;101922.02;;;18.54;100.00
62948;BME280;51940;52.126;-0.994;2023-05-25T12:29:06;101917.39;;;18.64;100.00
62948;BME280;51940;52.126;-0.994;2023-05-25T12:31:35;101915.08;;;18.73;100.00
62948;BME280;51940;52.126;-0.994;2023-05-25T12:34:16;101916.38;;;18.89;100.00
62948;BME280;51940;52.126;-0.994;2023-05-25T12:39:08;101915.05;;;18.80;100.00
62948;BME280;51940;52.126;-0.994;2023-05-25T12:41:52;101917.86;;;18.87;100.00
62948;BME280;51940;52.126;-0.994;2023-05-25T12:44:20;101919.00;;;19.07;100.00
62948;BME280;51940;52.126;-0.994;2023-05-25T12:47:14;101929.55;;;19.10;100.00
62948;BME280;51940;52.126;-0.994;2023-05-25T12:49:46;101928.02;;;18.97;100.00
62948;BME280;51940;52.126;-0.994;2023-05-25T12:52:34;101924.66;;;19.05;100.00